sensor_id;sensor_type;location;lat;lon;timestamp;pressure;altitude;pressure_sealevel;temperature;humidity
6128;BME280;7073;42.672;23.256;2023-03-01T00:00:03;94833.13;;;7.73;100.00
6128;BME280;7073;42.672;23.256;2023-03-01T00:02:30;94828.31;;;7.70;100.00
6128;BME280;7073;42.672;23.256;2023-03-01T00:04:56;94826.03;;;7.82;100.00
6128;BME280;7073;42.672;23.256;2023-03-01T00:07:23;94823.69;;;7.87;100.00
6128;BME280;7073;42.672;23.256;2023-03-01T00:09:50;94820.97;;;7.95;100.00
6128;BME280;7073;42.672;23.256;2023-03-01T00:12:17;94823.47;;;7.88;100.00
6128;BME280;7073;42.672;23.256;2023-03-01T00:14:43;94809.44;;;8.04;100.00
6128;BME280;7073;42.672;23.256;2023-03-01T00:17:11;94815.25;;;7.85;100.00
6128;BME280;7073;42.672;23.256;2023-03-01T00:19:38;94811.25;;;7.82;100.00
6128;BME280;7073;42.672;23.256;2023-03-01T00:22:05;94809.56;;;7.96;100.00
6128;BME280;7073;42.672;23.256;2023-03-01T00:24:32;94811.34;;;7.95;100.00
6128;BME280;7073;42.672;23.256;2023-03-01T00:26:59;94804.94;;;7.91;100.00
6128;BME280;7073;42.672;23.256;2023-03-01T00:29:26;94806.28;;;8.09;100.00
6128;BME280;7073;42.672;23.256;2023-03-01T00:31:52;94803.66;;;7.81;100.00
6128;BME280;7073;42.672;23.256;2023-03-01T00:34:20;94797.09;;;7.85;100.00
6128;BME280;7073;42.672;23.256;2023-03-01T00:36:47;94796.84;;;8.01;100.00
6128;BME280;7073;42.672;23.256;2023-03-01T00:39:15;94793.06;;;8.03;100.00
6128;BME280;7073;42.672;23.256;2023-03-01T00:41:42;94789.94;;;8.08;100.00
6128;BME280;7073;42.672;23.256;2023-03-01T00:44:10;94789.63;;;7.96;100.00
6128;BME280;7073;42.672;23.256;2023-03-01T00:46:37;94787.72;;;8.12;100.00
6128;BME280;7073;42.672;23.256;2023-03-01T00:49:04;94787.41;;;7.93;100.00
6128;BME280;7073;42.672;23.256;2023-03-01T00:51:32;94785.19;;;7.90;100.00
6128;BME280;7073;42.672;23.256;2023-03-01T00:54:01;94786.06;;;7.97;100.00
6128;BME280;7073;42.672;23.256;2023-03-01T00:56:29;94786.94;;;7.83;100.00
6128;BME280;7073;42.672;23.256;2023-03-01T00:58:56;94783.50;;;8.04;100.00
6128;BME280;7073;42.672;23.256;2023-03-01T01:01:24;94791.56;;;7.67;100.00
6128;BME280;7073;42.672;23.256;2023-03-01T01:03:55;94796.94;;;7.86;100.00
6128;BME280;7073;42.672;23.256;2023-03-01T01:06:23;94803.56;;;7.95;100.00
6128;BME280;7073;42.672;23.256;2023-03-01T01:08:53;94794.03;;;7.75;100.00
6128;BME280;7073;42.672;23.256;2023-03-01T01:11:21;94787.88;;;7.55;100.00
6128;BME280;7073;42.672;23.256;2023-03-01T01:13:49;94796.38;;;7.70;100.00
6128;BME280;7073;42.672;23.256;2023-03-01T01:16:17;94792.84;;;7.77;100.00
6128;BME280;7073;42.672;23.256;2023-03-01T01:18:45;94792.84;;;7.77;100.00
6128;BME280;7073;42.672;23.256;2023-03-01T01:21:14;94791.53;;;7.88;100.00
6128;BME280;7073;42.672;23.256;2023-03-01T01:23:42;94789.16;;;7.86;100.00
6128;BME280;7073;42.672;23.256;2023-03-01T01:26:12;94796.69;;;7.81;100.00
6128;BME280;7073;42.672;23.256;2023-03-01T01:28:40;94795.84;;;8.02;100.00
6128;BME280;7073;42.672;23.256;2023-03-01T01:31:07;94793.06;;;7.76;100.00
6128;BME280;7073;42.672;23.256;2023-03-01T01:33:34;94779.09;;;8.05;100.00
6128;BME280;7073;42.672;23.256;2023-03-01T01:36:03;94792.47;;;8.01;100.00
6128;BME280;7073;42.672;23.256;2023-03-01T01:38:30;94796.69;;;8.30;99.88
6128;BME280;7073;42.672;23.256;2023-03-01T01:40:57;94810.19;;;8.26;99.87
6128;BME280;7073;42.672;23.256;2023-03-01T01:43:27;94804.34;;;8.17;99.80
6128;BME280;7073;42.672;23.256;2023-03-01T01:45:55;94808.69;;;8.10;100.00
6128;BME280;7073;42.672;23.256;2023-03-01T01:48:27;94812.41;;;8.01;99.98
6128;BME280;7073;42.672;23.256;2023-03-01T01:51:07;94811.88;;;7.84;100.00
6128;BME280;7073;42.672;23.256;2023-03-01T01:53:37;94800.66;;;7.56;100.00
6128;BME280;7073;42.672;23.256;2023-03-01T01:56:07;94797.06;;;7.78;100.00
6128;BME280;7073;42.672;23.256;2023-03-01T01:58:37;94787.66;;;7.77;100.00
6128;BME280;7073;42.672;23.256;2023-03-01T02:01:05;94788.69;;;7.76;100.00
6128;BME280;7073;42.672;23.256;2023-03-01T02:03:33;94801.84;;;8.02;99.34
6128;BME280;7073;42.672;23.256;2023-03-01T02:06:05;94786.66;;;7.99;98.44
6128;BME280;7073;42.672;23.256;2023-03-01T02:08:35;94778.78;;;8.14;98.02
6128;BME280;7073;42.672;23.256;2023-03-01T02:11:05;94775.34;;;8.07;98.52
6128;BME280;7073;42.672;23.256;2023-03-01T02:13:32;94762.16;;;8.09;97.96
6128;BME280;7073;42.672;23.256;2023-03-01T02:16:04;94771.38;;;8.11;98.01
6128;BME280;7073;42.672;23.256;2023-03-01T02:18:31;94766.22;;;8.18;97.22
6128;BME280;7073;42.672;23.256;2023-03-01T02:21:30;94769.34;;;8.07;97.54
6128;BME280;7073;42.672;23.256;2023-03-01T02:23:59;94767.94;;;8.04;97.42
6128;BME280;7073;42.672;23.256;2023-03-01T02:26:34;94771.38;;;7.83;97.87
6128;BME280;7073;42.672;23.256;2023-03-01T02:29:05;94773.00;;;7.63;99.61
6128;BME280;7073;42.672;23.256;2023-03-01T02:31:32;94777.03;;;7.66;99.07
6128;BME280;7073;42.672;23.256;2023-03-01T02:34:09;94776.50;;;7.98;98.82
6128;BME280;7073;42.672;23.256;2023-03-01T02:36:40;94779.75;;;7.85;98.35
6128;BME280;7073;42.672;23.256;2023-03-01T02:39:08;94782.75;;;7.61;99.42
6128;BME280;7073;42.672;23.256;2023-03-01T02:41:41;94782.69;;;8.03;97.74
6128;BME280;7073;42.672;23.256;2023-03-01T02:44:10;94780.22;;;7.95;97.34
6128;BME280;7073;42.672;23.256;2023-03-01T02:46:42;94780.63;;;7.92;97.99
6128;BME280;7073;42.672;23.256;2023-03-01T02:49:19;94778.81;;;7.93;97.92
6128;BME280;7073;42.672;23.256;2023-03-01T02:51:56;94776.53;;;7.56;98.47
6128;BME280;7073;42.672;23.256;2023-03-01T02:54:30;94775.25;;;7.66;98.80
6128;BME280;7073;42.672;23.256;2023-03-01T02:57:01;94773.25;;;7.68;98.54
6128;BME280;7073;42.672;23.256;2023-03-01T02:59:32;94771.00;;;7.86;98.70
6128;BME280;7073;42.672;23.256;2023-03-01T03:02:04;94772.66;;;7.94;97.93
6128;BME280;7073;42.672;23.256;2023-03-01T03:04:31;94770.56;;;7.83;98.14
6128;BME280;7073;42.672;23.256;2023-03-01T03:06:58;94773.19;;;7.62;99.44
6128;BME280;7073;42.672;23.256;2023-03-01T03:09:25;94768.19;;;7.60;99.44
6128;BME280;7073;42.672;23.256;2023-03-01T03:11:51;94768.91;;;7.75;99.29
6128;BME280;7073;42.672;23.256;2023-03-01T03:14:18;94775.41;;;7.65;99.39
6128;BME280;7073;42.672;23.256;2023-03-01T03:16:48;94776.22;;;7.65;99.84
6128;BME280;7073;42.672;23.256;2023-03-01T03:19:16;94792.00;;;7.70;99.99
6128;BME280;7073;42.672;23.256;2023-03-01T03:21:43;94784.03;;;7.72;99.64
6128;BME280;7073;42.672;23.256;2023-03-01T03:24:10;94772.44;;;7.68;100.00
6128;BME280;7073;42.672;23.256;2023-03-01T03:26:37;94773.81;;;7.64;99.92
6128;BME280;7073;42.672;23.256;2023-03-01T03:29:04;94774.22;;;7.67;99.81
6128;BME280;7073;42.672;23.256;2023-03-01T03:31:31;94761.50;;;7.72;99.51
6128;BME280;7073;42.672;23.256;2023-03-01T03:33:59;94778.31;;;7.55;100.00
6128;BME280;7073;42.672;23.256;2023-03-01T03:36:26;94773.50;;;7.52;100.00
6128;BME280;7073;42.672;23.256;2023-03-01T03:38:52;94779.75;;;7.58;100.00
6128;BME280;7073;42.672;23.256;2023-03-01T03:41:19;94780.53;;;7.58;100.00
6128;BME280;7073;42.672;23.256;2023-03-01T03:43:46;94770.72;;;7.32;100.00
6128;BME280;7073;42.672;23.256;2023-03-01T03:46:14;94780.53;;;7.37;100.00
6128;BME280;7073;42.672;23.256;2023-03-01T03:48:43;94784.47;;;7.12;100.00
6128;BME280;7073;42.672;23.256;2023-03-01T03:51:13;94777.56;;;7.19;100.00
6128;BME280;7073;42.672;23.256;2023-03-01T03:53:41;94777.81;;;7.03;100.00
6128;BME280;7073;42.672;23.256;2023-03-01T03:56:08;94770.06;;;7.24;100.00
6128;BME280;7073;42.672;23.256;2023-03-01T03:58:35;94773.88;;;7.28;100.00
6128;BME280;7073;42.672;23.256;2023-03-01T04:01:02;94763.13;;;7.10;100.00
6128;BME280;7073;42.672;23.256;2023-03-01T04:03:30;94767.34;;;7.11;100.00
6128;BME280;7073;42.672;23.256;2023-03-01T04:05:59;94777.16;;;7.01;100.00
6128;BME280;7073;42.672;23.256;2023-03-01T04:08:28;94781.66;;;6.92;100.00
6128;BME280;7073;42.672;23.256;2023-03-01T04:10:58;94779.44;;;6.89;100.00
6128;BME280;7073;42.672;23.256;2023-03-01T04:13:46;94778.16;;;7.00;100.00
6128;BME280;7073;42.672;23.256;2023-03-01T04:16:12;94776.63;;;7.05;100.00
6128;BME280;7073;42.672;23.256;2023-03-01T04:18:39;94772.84;;;6.87;100.00
6128;BME280;7073;42.672;23.256;2023-03-01T04:21:06;94780.28;;;7.11;100.00
6128;BME280;7073;42.672;23.256;2023-03-01T04:23:34;94781.44;;;7.08;100.00
6128;BME280;7073;42.672;23.256;2023-03-01T04:26:01;94774.75;;;6.99;100.00
6128;BME280;7073;42.672;23.256;2023-03-01T04:28:30;94777.03;;;7.09;100.00
6128;BME280;7073;42.672;23.256;2023-03-01T04:30:58;94786.19;;;7.05;100.00
6128;BME280;7073;42.672;23.256;2023-03-01T04:33:30;94776.22;;;6.87;100.00
6128;BME280;7073;42.672;23.256;2023-03-01T04:35:56;94780.16;;;6.83;100.00
6128;BME280;7073;42.672;23.256;2023-03-01T04:38:23;94772.47;;;6.90;100.00
6128;BME280;7073;42.672;23.256;2023-03-01T04:40:51;94767.81;;;7.00;100.00
6128;BME280;7073;42.672;23.256;2023-03-01T04:43:18;94779.69;;;6.94;100.00
6128;BME280;7073;42.672;23.256;2023-03-01T04:45:45;94776.66;;;6.91;100.00
6128;BME280;7073;42.672;23.256;2023-03-01T04:48:12;94779.09;;;6.77;100.00
6128;BME280;7073;42.672;23.256;2023-03-01T04:50:39;94768.22;;;6.82;100.00
6128;BME280;7073;42.672;23.256;2023-03-01T04:53:06;94765.69;;;6.89;100.00
6128;BME280;7073;42.672;23.256;2023-03-01T04:55:33;94748.63;;;6.94;100.00
6128;BME280;7073;42.672;23.256;2023-03-01T04:58:01;94765.94;;;6.94;100.00
6128;BME280;7073;42.672;23.256;2023-03-01T05:00:28;94748.38;;;6.74;100.00
6128;BME280;7073;42.672;23.256;2023-03-01T05:02:56;94768.16;;;6.97;100.00
6128;BME280;7073;42.672;23.256;2023-03-01T05:05:26;94771.13;;;6.94;100.00
6128;BME280;7073;42.672;23.256;2023-03-01T05:07:55;94756.56;;;7.14;100.00
6128;BME280;7073;42.672;23.256;2023-03-01T05:10:23;94750.09;;;7.03;100.00
6128;BME280;7073;42.672;23.256;2023-03-01T05:12:50;94764.97;;;6.95;100.00
6128;BME280;7073;42.672;23.256;2023-03-01T05:15:20;94771.66;;;6.89;100.00
6128;BME280;7073;42.672;23.256;2023-03-01T05:17:50;94778.00;;;6.87;100.00
6128;BME280;7073;42.672;23.256;2023-03-01T05:20:18;94769.34;;;6.94;100.00
6128;BME280;7073;42.672;23.256;2023-03-01T05:22:48;94778.44;;;6.90;100.00
6128;BME280;7073;42.672;23.256;2023-03-01T05:25:15;94775.13;;;6.96;100.00
6128;BME280;7073;42.672;23.256;2023-03-01T05:27:42;94777.91;;;6.95;100.00
6128;BME280;7073;42.672;23.256;2023-03-01T05:30:10;94780.56;;;7.01;100.00
6128;BME280;7073;42.672;23.256;2023-03-01T05:32:45;94773.41;;;7.03;100.00
6128;BME280;7073;42.672;23.256;2023-03-01T05:35:13;94775.38;;;7.01;100.00
6128;BME280;7073;42.672;23.256;2023-03-01T05:37:41;94771.69;;;7.10;100.00
6128;BME280;7073;42.672;23.256;2023-03-01T05:40:10;94779.75;;;7.01;100.00
6128;BME280;7073;42.672;23.256;2023-03-01T05:42:43;94774.22;;;7.04;100.00
6128;BME280;7073;42.672;23.256;2023-03-01T05:45:11;94770.09;;;7.30;100.00
6128;BME280;7073;42.672;23.256;2023-03-01T05:47:39;94775.28;;;7.30;100.00
6128;BME280;7073;42.672;23.256;2023-03-01T05:50:12;94785.81;;;7.08;100.00
6128;BME280;7073;42.672;23.256;2023-03-01T05:52:39;94792.41;;;7.10;100.00
6128;BME280;7073;42.672;23.256;2023-03-01T05:55:07;94797.63;;;7.31;100.00
6128;BME280;7073;42.672;23.256;2023-03-01T05:57:34;94801.19;;;7.30;100.00
6128;BME280;7073;42.672;23.256;2023-03-01T06:00:01;94807.75;;;7.48;100.00
6128;BME280;7073;42.672;23.256;2023-03-01T06:02:28;94790.34;;;7.20;100.00
6128;BME280;7073;42.672;23.256;2023-03-01T06:04:55;94814.66;;;7.40;100.00
6128;BME280;7073;42.672;23.256;2023-03-01T06:07:23;94812.38;;;7.31;100.00
6128;BME280;7073;42.672;23.256;2023-03-01T06:09:50;94811.13;;;7.48;100.00
6128;BME280;7073;42.672;23.256;2023-03-01T06:12:17;94821.22;;;7.58;100.00
6128;BME280;7073;42.672;23.256;2023-03-01T06:14:45;94822.50;;;7.47;100.00
6128;BME280;7073;42.672;23.256;2023-03-01T06:17:13;94816.19;;;7.35;100.00
6128;BME280;7073;42.672;23.256;2023-03-01T06:19:40;94819.66;;;7.42;100.00
6128;BME280;7073;42.672;23.256;2023-03-01T06:22:07;94821.56;;;7.33;100.00
6128;BME280;7073;42.672;23.256;2023-03-01T06:24:35;94831.22;;;7.25;100.00
6128;BME280;7073;42.672;23.256;2023-03-01T06:27:02;94833.09;;;7.31;100.00
6128;BME280;7073;42.672;23.256;2023-03-01T06:29:28;94825.66;;;7.43;100.00
6128;BME280;7073;42.672;23.256;2023-03-01T06:31:55;94831.47;;;7.30;100.00
6128;BME280;7073;42.672;23.256;2023-03-01T06:34:22;94838.66;;;7.28;100.00
6128;BME280;7073;42.672;23.256;2023-03-01T06:36:49;94841.56;;;7.39;100.00
6128;BME280;7073;42.672;23.256;2023-03-01T06:39:16;94831.56;;;7.36;100.00
6128;BME280;7073;42.672;23.256;2023-03-01T06:41:44;94819.69;;;7.27;100.00
6128;BME280;7073;42.672;23.256;2023-03-01T06:44:11;94835.75;;;7.37;100.00
6128;BME280;7073;42.672;23.256;2023-03-01T06:46:38;94831.13;;;7.33;100.00
6128;BME280;7073;42.672;23.256;2023-03-01T06:49:05;94832.66;;;7.27;100.00
6128;BME280;7073;42.672;23.256;2023-03-01T06:51:35;94825.09;;;7.47;100.00
6128;BME280;7073;42.672;23.256;2023-03-01T06:54:03;94820.28;;;7.44;100.00
6128;BME280;7073;42.672;23.256;2023-03-01T06:56:30;94830.09;;;7.49;100.00
6128;BME280;7073;42.672;23.256;2023-03-01T06:58:58;94831.38;;;7.38;100.00
6128;BME280;7073;42.672;23.256;2023-03-01T07:01:25;94829.03;;;7.64;100.00
6128;BME280;7073;42.672;23.256;2023-03-01T07:03:52;94834.31;;;7.71;100.00
6128;BME280;7073;42.672;23.256;2023-03-01T07:06:18;94831.88;;;7.69;100.00
6128;BME280;7073;42.672;23.256;2023-03-01T07:08:45;94829.22;;;7.84;99.71
6128;BME280;7073;42.672;23.256;2023-03-01T07:11:12;94827.81;;;7.81;99.72
6128;BME280;7073;42.672;23.256;2023-03-01T07:13:39;94824.91;;;7.91;99.57
6128;BME280;7073;42.672;23.256;2023-03-01T07:16:08;94837.38;;;7.60;99.30
6128;BME280;7073;42.672;23.256;2023-03-01T07:18:35;94839.38;;;8.07;99.09
6128;BME280;7073;42.672;23.256;2023-03-01T07:21:05;94833.28;;;7.93;98.65
6128;BME280;7073;42.672;23.256;2023-03-01T07:23:32;94821.69;;;7.89;98.64
6128;BME280;7073;42.672;23.256;2023-03-01T07:25:59;94824.81;;;8.27;97.09
6128;BME280;7073;42.672;23.256;2023-03-01T07:28:27;94823.66;;;8.36;97.17
6128;BME280;7073;42.672;23.256;2023-03-01T07:30:54;94815.72;;;8.44;96.37
6128;BME280;7073;42.672;23.256;2023-03-01T07:33:23;94822.63;;;8.30;97.72
6128;BME280;7073;42.672;23.256;2023-03-01T07:35:56;94828.13;;;8.48;96.58
6128;BME280;7073;42.672;23.256;2023-03-01T07:38:23;94819.31;;;8.43;96.30
6128;BME280;7073;42.672;23.256;2023-03-01T07:40:50;94826.47;;;8.69;94.85
6128;BME280;7073;42.672;23.256;2023-03-01T07:43:16;94821.69;;;9.13;93.73
6128;BME280;7073;42.672;23.256;2023-03-01T07:45:43;94819.19;;;8.92;93.03
6128;BME280;7073;42.672;23.256;2023-03-01T07:48:10;94819.22;;;8.98;92.78
6128;BME280;7073;42.672;23.256;2023-03-01T07:50:38;94817.63;;;8.97;92.26
6128;BME280;7073;42.672;23.256;2023-03-01T07:53:05;94820.72;;;8.80;91.84
6128;BME280;7073;42.672;23.256;2023-03-01T07:55:33;94812.47;;;9.10;91.19
6128;BME280;7073;42.672;23.256;2023-03-01T07:58:00;94823.25;;;9.14;90.80
6128;BME280;7073;42.672;23.256;2023-03-01T08:00:26;94811.19;;;8.93;91.00
6128;BME280;7073;42.672;23.256;2023-03-01T08:02:53;94813.63;;;8.95;91.25
6128;BME280;7073;42.672;23.256;2023-03-01T08:05:20;94817.84;;;9.09;90.60
6128;BME280;7073;42.672;23.256;2023-03-01T08:07:48;94815.41;;;8.94;91.24
6128;BME280;7073;42.672;23.256;2023-03-01T08:10:16;94809.81;;;8.97;90.86
6128;BME280;7073;42.672;23.256;2023-03-01T08:12:43;94813.28;;;9.11;89.29
6128;BME280;7073;42.672;23.256;2023-03-01T08:15:10;94819.31;;;9.18;89.27
6128;BME280;7073;42.672;23.256;2023-03-01T08:17:37;94809.50;;;9.13;88.83
6128;BME280;7073;42.672;23.256;2023-03-01T08:20:04;94810.00;;;8.96;89.70
6128;BME280;7073;42.672;23.256;2023-03-01T08:22:32;94813.16;;;9.32;88.85
6128;BME280;7073;42.672;23.256;2023-03-01T08:25:00;94818.94;;;9.34;88.21
6128;BME280;7073;42.672;23.256;2023-03-01T08:27:27;94815.19;;;9.56;86.89
6128;BME280;7073;42.672;23.256;2023-03-01T08:29:54;94818.19;;;9.47;86.49
6128;BME280;7073;42.672;23.256;2023-03-01T08:32:20;94822.53;;;9.27;87.05
6128;BME280;7073;42.672;23.256;2023-03-01T08:34:47;94814.81;;;8.92;88.97
6128;BME280;7073;42.672;23.256;2023-03-01T08:37:14;94811.41;;;8.98;89.22
6128;BME280;7073;42.672;23.256;2023-03-01T08:39:41;94818.47;;;9.11;88.43
6128;BME280;7073;42.672;23.256;2023-03-01T08:42:09;94816.44;;;9.00;88.73
6128;BME280;7073;42.672;23.256;2023-03-01T08:44:36;94818.06;;;9.14;88.74
6128;BME280;7073;42.672;23.256;2023-03-01T08:47:03;94821.09;;;9.17;87.95
6128;BME280;7073;42.672;23.256;2023-03-01T08:49:30;94820.09;;;9.18;87.55
6128;BME280;7073;42.672;23.256;2023-03-01T08:51:57;94819.25;;;9.11;86.77
6128;BME280;7073;42.672;23.256;2023-03-01T08:54:24;94822.84;;;9.04;87.21
6128;BME280;7073;42.672;23.256;2023-03-01T08:56:51;94821.84;;;9.11;86.89
6128;BME280;7073;42.672;23.256;2023-03-01T08:59:19;94819.25;;;9.11;87.18
6128;BME280;7073;42.672;23.256;2023-03-01T09:01:46;94825.16;;;9.40;85.93
6128;BME280;7073;42.672;23.256;2023-03-01T09:04:14;94819.78;;;9.54;85.25
6128;BME280;7073;42.672;23.256;2023-03-01T09:06:41;94820.97;;;9.39;83.91
6128;BME280;7073;42.672;23.256;2023-03-01T09:09:13;94827.16;;;9.38;83.85
6128;BME280;7073;42.672;23.256;2023-03-01T09:11:41;94823.97;;;9.42;83.52
6128;BME280;7073;42.672;23.256;2023-03-01T09:14:08;94823.78;;;9.44;83.04
6128;BME280;7073;42.672;23.256;2023-03-01T09:16:36;94826.72;;;9.28;83.17
6128;BME280;7073;42.672;23.256;2023-03-01T09:19:03;94814.78;;;9.46;83.12
6128;BME280;7073;42.672;23.256;2023-03-01T09:21:30;94819.16;;;9.46;82.82
6128;BME280;7073;42.672;23.256;2023-03-01T09:23:57;94816.19;;;9.42;83.28
6128;BME280;7073;42.672;23.256;2023-03-01T09:26:24;94812.13;;;9.33;83.33
6128;BME280;7073;42.672;23.256;2023-03-01T09:28:54;94809.53;;;9.27;83.38
6128;BME280;7073;42.672;23.256;2023-03-01T09:31:22;94812.41;;;9.58;82.90
6128;BME280;7073;42.672;23.256;2023-03-01T09:33:52;94809.22;;;9.56;81.18
6128;BME280;7073;42.672;23.256;2023-03-01T09:36:21;94808.78;;;9.59;81.41
6128;BME280;7073;42.672;23.256;2023-03-01T09:38:48;94799.16;;;9.40;82.90
6128;BME280;7073;42.672;23.256;2023-03-01T09:41:32;94800.63;;;9.81;81.73
6128;BME280;7073;42.672;23.256;2023-03-01T09:44:10;94802.63;;;9.73;82.68
6128;BME280;7073;42.672;23.256;2023-03-01T09:46:42;94804.22;;;9.61;83.01
6128;BME280;7073;42.672;23.256;2023-03-01T09:49:15;94807.03;;;9.66;82.49
6128;BME280;7073;42.672;23.256;2023-03-01T09:51:53;94802.03;;;9.84;81.98
6128;BME280;7073;42.672;23.256;2023-03-01T09:54:20;94797.03;;;9.96;81.28
6128;BME280;7073;42.672;23.256;2023-03-01T09:56:59;94790.84;;;9.77;81.26
6128;BME280;7073;42.672;23.256;2023-03-01T09:59:33;94784.44;;;9.79;81.80
6128;BME280;7073;42.672;23.256;2023-03-01T10:02:19;94777.00;;;9.63;82.10
6128;BME280;7073;42.672;23.256;2023-03-01T10:04:51;94767.81;;;9.87;81.24
6128;BME280;7073;42.672;23.256;2023-03-01T10:07:28;94778.22;;;9.87;81.32
6128;BME280;7073;42.672;23.256;2023-03-01T10:09:58;94778.81;;;9.76;81.47
6128;BME280;7073;42.672;23.256;2023-03-01T10:12:32;94772.63;;;10.03;80.50
6128;BME280;7073;42.672;23.256;2023-03-01T10:15:05;94773.41;;;9.84;82.37
6128;BME280;7073;42.672;23.256;2023-03-01T10:17:37;94767.41;;;10.03;80.18
6128;BME280;7073;42.672;23.256;2023-03-01T10:20:20;94771.81;;;10.03;80.21
6128;BME280;7073;42.672;23.256;2023-03-01T10:22:47;94774.03;;;9.93;80.62
6128;BME280;7073;42.672;23.256;2023-03-01T10:25:23;94768.81;;;9.79;81.65
6128;BME280;7073;42.672;23.256;2023-03-01T10:28:01;94760.59;;;9.89;80.94
6128;BME280;7073;42.672;23.256;2023-03-01T10:30:32;94757.22;;;9.69;80.78
6128;BME280;7073;42.672;23.256;2023-03-01T10:33:16;94773.81;;;10.01;80.25
6128;BME280;7073;42.672;23.256;2023-03-01T10:35:45;94761.59;;;9.95;80.02
6128;BME280;7073;42.672;23.256;2023-03-01T10:38:13;94757.78;;;10.10;79.52
6128;BME280;7073;42.672;23.256;2023-03-01T10:40:52;94766.03;;;10.27;78.44
6128;BME280;7073;42.672;23.256;2023-03-01T10:43:20;94758.38;;;9.99;80.54
6128;BME280;7073;42.672;23.256;2023-03-01T10:45:48;94759.00;;;9.68;80.93
6128;BME280;7073;42.672;23.256;2023-03-01T10:48:16;94750.19;;;9.76;81.73
6128;BME280;7073;42.672;23.256;2023-03-01T10:50:47;94762.59;;;9.74;81.55
6128;BME280;7073;42.672;23.256;2023-03-01T10:53:33;94758.00;;;9.63;82.33
6128;BME280;7073;42.672;23.256;2023-03-01T10:56:03;94758.97;;;10.01;80.69
6128;BME280;7073;42.672;23.256;2023-03-01T10:58:33;94756.78;;;9.85;80.96
6128;BME280;7073;42.672;23.256;2023-03-01T11:01:01;94760.59;;;9.69;81.50
6128;BME280;7073;42.672;23.256;2023-03-01T11:03:31;94758.41;;;9.93;80.93
6128;BME280;7073;42.672;23.256;2023-03-01T11:06:02;94766.41;;;9.91;79.86
6128;BME280;7073;42.672;23.256;2023-03-01T11:08:38;94772.81;;;9.95;80.58
6128;BME280;7073;42.672;23.256;2023-03-01T11:13:53;94745.78;;;9.96;79.15
6128;BME280;7073;42.672;23.256;2023-03-01T11:16:34;94765.19;;;9.94;78.77
6128;BME280;7073;42.672;23.256;2023-03-01T11:19:15;94751.16;;;9.29;82.97
6128;BME280;7073;42.672;23.256;2023-03-01T11:21:50;94753.78;;;9.62;81.50
6128;BME280;7073;42.672;23.256;2023-03-01T11:24:19;94749.59;;;9.74;81.85
6128;BME280;7073;42.672;23.256;2023-03-01T11:26:50;94739.59;;;9.71;80.75
6128;BME280;7073;42.672;23.256;2023-03-01T11:29:26;94750.19;;;9.76;80.70
6128;BME280;7073;42.672;23.256;2023-03-01T11:31:58;94754.00;;;9.87;79.49
6128;BME280;7073;42.672;23.256;2023-03-01T11:34:36;94750.38;;;9.94;80.04
6128;BME280;7073;42.672;23.256;2023-03-01T11:37:15;94740.38;;;9.45;81.67
6128;BME280;7073;42.672;23.256;2023-03-01T11:39:47;94738.19;;;9.68;82.14
6128;BME280;7073;42.672;23.256;2023-03-01T11:42:20;94730.38;;;9.42;81.30
6128;BME280;7073;42.672;23.256;2023-03-01T11:44:54;94722.38;;;9.63;81.84
6128;BME280;7073;42.672;23.256;2023-03-01T11:47:30;94710.38;;;9.56;81.14
6128;BME280;7073;42.672;23.256;2023-03-01T11:50:05;94716.78;;;9.73;81.61
6128;BME280;7073;42.672;23.256;2023-03-01T11:52:44;94710.38;;;9.62;81.34
6128;BME280;7073;42.672;23.256;2023-03-01T11:55:30;94714.19;;;9.66;81.54
6128;BME280;7073;42.672;23.256;2023-03-01T11:58:26;94700.97;;;9.68;81.65
6128;BME280;7073;42.672;23.256;2023-03-01T12:01:02;94701.78;;;9.68;82.86
6128;BME280;7073;42.672;23.256;2023-03-01T12:03:52;94709.34;;;10.16;80.50
6128;BME280;7073;42.672;23.256;2023-03-01T12:06:38;94704.94;;;9.97;80.17
6128;BME280;7073;42.672;23.256;2023-03-01T12:09:21;94704.56;;;9.87;79.68
6128;BME280;7073;42.672;23.256;2023-03-01T12:12:07;94703.34;;;9.96;79.87
6128;BME280;7073;42.672;23.256;2023-03-01T12:15:09;94697.13;;;10.03;80.12
6128;BME280;7073;42.672;23.256;2023-03-01T12:17:50;94696.72;;;10.26;79.24
6128;BME280;7073;42.672;23.256;2023-03-01T12:20:28;94695.88;;;10.38;78.67
6128;BME280;7073;42.672;23.256;2023-03-01T12:23:11;94687.09;;;10.26;78.95
6128;BME280;7073;42.672;23.256;2023-03-01T12:25:48;94693.41;;;10.57;77.73
6128;BME280;7073;42.672;23.256;2023-03-01T12:28:38;94692.34;;;10.64;77.31
6128;BME280;7073;42.672;23.256;2023-03-01T12:31:36;94693.44;;;10.88;76.52
6128;BME280;7073;42.672;23.256;2023-03-01T12:34:21;94689.22;;;10.93;75.50
6128;BME280;7073;42.672;23.256;2023-03-01T12:37:07;94684.31;;;10.72;75.03
6128;BME280;7073;42.672;23.256;2023-03-01T12:39:49;94671.28;;;11.10;74.86
6128;BME280;7073;42.672;23.256;2023-03-01T12:42:27;94676.97;;;11.56;73.19
6128;BME280;7073;42.672;23.256;2023-03-01T12:45:15;94687.25;;;11.51;71.70
6128;BME280;7073;42.672;23.256;2023-03-01T12:47:56;94688.03;;;11.27;72.85
6128;BME280;7073;42.672;23.256;2023-03-01T12:50:29;94683.63;;;11.52;71.61
6128;BME280;7073;42.672;23.256;2023-03-01T12:53:01;94691.97;;;11.92;70.04
6128;BME280;7073;42.672;23.256;2023-03-01T12:55:31;94684.28;;;11.97;69.46
6128;BME280;7073;42.672;23.256;2023-03-01T12:58:06;94688.09;;;11.77;69.31
6128;BME280;7073;42.672;23.256;2023-03-01T13:00:40;94684.66;;;12.01;68.34
6128;BME280;7073;42.672;23.256;2023-03-01T13:03:22;94686.44;;;11.82;67.83
6128;BME280;7073;42.672;23.256;2023-03-01T13:06:04;94691.59;;;11.89;68.59
6128;BME280;7073;42.672;23.256;2023-03-01T13:08:36;94683.78;;;12.07;67.03
6128;BME280;7073;42.672;23.256;2023-03-01T13:11:14;94687.47;;;11.99;67.36
6128;BME280;7073;42.672;23.256;2023-03-01T13:13:43;94692.66;;;12.42;66.93
6128;BME280;7073;42.672;23.256;2023-03-01T13:16:21;94687.72;;;12.34;65.33
6128;BME280;7073;42.672;23.256;2023-03-01T13:18:48;94686.94;;;12.34;64.93
6128;BME280;7073;42.672;23.256;2023-03-01T13:21:29;94689.91;;;12.37;65.12
6128;BME280;7073;42.672;23.256;2023-03-01T13:23:56;94686.91;;;12.52;65.16
6128;BME280;7073;42.672;23.256;2023-03-01T13:26:23;94691.13;;;11.98;65.06
6128;BME280;7073;42.672;23.256;2023-03-01T13:28:53;94692.13;;;11.73;66.17
6128;BME280;7073;42.672;23.256;2023-03-01T13:34:46;94700.44;;;11.56;68.54
6128;BME280;7073;42.672;23.256;2023-03-01T13:37:25;94692.56;;;11.38;68.33